Time;durP1;ratioP1;P1;durP2;ratioP2;P2;SDS_P1;SDS_P2;PMS_P1;PMS_P2;Temp;Humidity;BMP_temperature;BMP_pressure;BME280_temperature;BME280_humidity;BME280_pressure;Samples;Min_cycle;Max_cycle;Signal;HPM_P1;HPM_P2
2022/03/15 00:01:19;;;;;;;30.10;18.07;;;5.70;99.90;;;;;;5033473;28;20610;-85
2022/03/15 00:03:49;;;;;;;25.00;18.07;;;5.70;99.90;;;;;;5033758;28;20179;-86
2022/03/15 00:06:15;;;;;;;30.03;18.57;;;5.70;99.90;;;;;;5033298;28;20587;-85
2022/03/15 00:08:41;;;;;;;25.43;17.70;;;5.60;99.90;;;;;;5032368;28;20281;-86
2022/03/15 00:11:07;;;;;;;23.07;16.57;;;5.60;99.90;;;;;;5033505;28;20171;-85
2022/03/15 00:13:36;;;;;;;26.83;17.83;;;5.50;99.90;;;;;;5033570;28;20262;-85
2022/03/15 00:16:03;;;;;;;23.83;16.07;;;5.50;99.90;;;;;;5033279;28;20340;-86
2022/03/15 00:18:30;;;;;;;23.13;16.30;;;5.40;99.90;;;;;;5033386;28;20205;-85
2022/03/15 00:21:04;;;;;;;22.97;15.33;;;5.40;99.90;;;;;;5033089;28;20179;-88
2022/03/15 00:23:33;;;;;;;25.27;17.17;;;5.30;99.90;;;;;;5034485;28;20238;-85
2022/03/15 00:25:59;;;;;;;22.93;15.73;;;5.20;99.90;;;;;;5033488;28;20167;-84
2022/03/15 00:28:25;;;;;;;24.27;16.47;;;5.20;99.90;;;;;;5033317;28;20265;-85
2022/03/15 00:30:52;;;;;;;25.93;16.13;;;5.20;99.90;;;;;;5033500;28;20583;-87
2022/03/15 00:33:18;;;;;;;25.83;16.67;;;5.10;99.90;;;;;;5032708;28;20186;-86
2022/03/15 00:35:44;;;;;;;27.90;17.20;;;5.10;99.90;;;;;;5032799;28;20275;-84
2022/03/15 00:38:10;;;;;;;24.30;16.50;;;5.10;99.90;;;;;;5032954;28;20202;-86
2022/03/15 00:40:36;;;;;;;29.80;17.67;;;5.10;99.90;;;;;;5032900;28;20177;-84
2022/03/15 00:43:02;;;;;;;25.63;17.60;;;5.10;99.90;;;;;;5033208;28;20171;-88
2022/03/15 00:45:28;;;;;;;26.20;16.90;;;5.00;99.90;;;;;;5032739;28;20178;-85
2022/03/15 00:48:00;;;;;;;28.10;17.37;;;5.00;99.90;;;;;;5033074;28;20205;-85
2022/03/15 00:50:30;;;;;;;27.47;16.90;;;5.00;99.90;;;;;;5032904;28;20170;-85
2022/03/15 00:52:56;;;;;;;24.60;16.70;;;5.10;99.90;;;;;;5032889;28;20676;-85
2022/03/15 00:55:22;;;;;;;26.80;16.50;;;5.00;99.90;;;;;;5032859;28;20209;-86
2022/03/15 00:57:48;;;;;;;24.07;16.23;;;5.00;99.90;;;;;;5032669;28;20203;-85
2022/03/15 01:00:16;;;;;;;22.53;15.23;;;4.90;99.90;;;;;;5033777;28;20187;-85
2022/03/15 01:02:41;;;;;;;27.87;17.97;;;5.00;99.90;;;;;;5032261;28;20163;-86
2022/03/15 01:05:08;;;;;;;26.00;17.57;;;5.00;99.90;;;;;;5032572;28;20506;-85
2022/03/15 01:07:34;;;;;;;25.63;16.87;;;4.90;99.90;;;;;;5032052;28;20685;-86
2022/03/15 01:10:00;;;;;;;24.63;17.63;;;4.90;99.90;;;;;;5032134;28;20253;-88
2022/03/15 01:12:26;;;;;;;23.93;16.07;;;4.80;99.90;;;;;;5032378;28;20314;-85
2022/03/15 01:14:51;;;;;;;23.47;16.37;;;4.80;99.90;;;;;;5032605;28;20183;-87
2022/03/15 01:17:17;;;;;;;24.07;16.77;;;4.80;99.90;;;;;;5032259;28;20200;-85
2022/03/15 01:19:44;;;;;;;27.80;17.30;;;4.70;99.90;;;;;;5031906;28;20171;-85
2022/03/15 01:22:10;;;;;;;28.87;18.43;;;4.70;99.90;;;;;;5032160;28;20166;-85
2022/03/15 01:24:36;;;;;;;28.57;18.87;;;4.70;99.90;;;;;;5032237;28;20193;-86
2022/03/15 01:27:02;;;;;;;26.77;17.60;;;4.70;99.90;;;;;;5031965;28;20170;-86
2022/03/15 01:29:28;;;;;;;25.93;18.27;;;4.80;99.90;;;;;;5032906;28;20233;-84
2022/03/15 01:31:54;;;;;;;27.80;18.07;;;4.80;99.90;;;;;;5031935;28;20174;-87
2022/03/15 01:34:20;;;;;;;28.77;17.83;;;4.80;99.90;;;;;;5031899;28;20187;-86
2022/03/15 01:36:46;;;;;;;29.73;18.57;;;4.80;99.90;;;;;;5031931;28;20191;-85
2022/03/15 01:39:12;;;;;;;30.83;18.90;;;4.80;99.90;;;;;;5032030;28;20256;-86
2022/03/15 01:41:41;;;;;;;32.07;18.70;;;4.80;99.90;;;;;;5031854;28;20167;-85
2022/03/15 01:44:20;;;;;;;28.83;18.60;;;4.80;99.90;;;;;;5031891;28;20213;-86
2022/03/15 01:46:47;;;;;;;27.37;18.80;;;4.80;99.90;;;;;;5033148;28;20173;-85
2022/03/15 01:49:13;;;;;;;29.00;18.67;;;4.80;99.90;;;;;;5031945;28;20301;-86
2022/03/15 01:51:40;;;;;;;27.63;18.40;;;4.80;99.90;;;;;;5031567;28;20178;-86
2022/03/15 01:54:08;;;;;;;29.23;17.97;;;4.80;99.90;;;;;;5032762;28;20175;-87
2022/03/15 01:56:34;;;;;;;30.57;19.43;;;4.80;99.90;;;;;;5031614;28;20599;-84
2022/03/15 01:59:00;;;;;;;27.77;17.33;;;4.80;99.90;;;;;;5031696;28;20198;-86
2022/03/15 02:01:26;;;;;;;29.40;18.37;;;4.80;99.90;;;;;;5031496;28;20190;-86
2022/03/15 02:03:52;;;;;;;29.90;18.10;;;4.70;99.90;;;;;;5031310;28;20186;-86
2022/03/15 02:06:18;;;;;;;26.27;17.20;;;4.70;99.90;;;;;;5031714;28;20167;-86
2022/03/15 02:08:43;;;;;;;29.33;17.47;;;4.70;99.90;;;;;;5031283;28;20836;-84
2022/03/15 02:11:09;;;;;;;29.73;17.83;;;4.70;99.90;;;;;;5031711;28;20167;-86
2022/03/15 02:13:35;;;;;;;27.10;17.83;;;4.60;99.90;;;;;;5031600;28;20171;-87
2022/03/15 02:16:01;;;;;;;31.23;18.17;;;4.60;99.90;;;;;;5031683;28;20194;-86
2022/03/15 02:18:27;;;;;;;28.83;18.10;;;4.60;99.90;;;;;;5031545;28;20221;-85
2022/03/15 02:20:55;;;;;;;27.50;18.33;;;4.60;99.90;;;;;;5032775;28;20195;-87
2022/03/15 02:23:21;;;;;;;30.97;18.30;;;4.60;99.90;;;;;;5031368;28;20692;-86
2022/03/15 02:25:47;;;;;;;27.33;17.27;;;4.60;99.90;;;;;;5032575;28;20159;-85
2022/03/15 02:28:13;;;;;;;27.50;17.97;;;4.50;99.90;;;;;;5031211;28;20226;-85
2022/03/15 02:30:39;;;;;;;30.10;18.73;;;4.60;99.90;;;;;;5031681;28;20182;-85
2022/03/15 02:33:05;;;;;;;25.63;16.83;;;4.50;99.90;;;;;;5035127;28;20631;-85
2022/03/15 02:35:30;;;;;;;26.07;17.53;;;4.50;99.90;;;;;;5035155;28;20194;-84
2022/03/15 02:37:57;;;;;;;27.90;17.20;;;4.50;99.90;;;;;;5036269;28;20268;-85
2022/03/15 02:40:22;;;;;;;26.47;16.97;;;4.50;99.90;;;;;;5035453;28;20166;-86
2022/03/15 02:42:48;;;;;;;25.20;18.13;;;4.40;99.90;;;;;;5035657;28;20312;-86
2022/03/15 02:45:15;;;;;;;29.83;18.40;;;4.40;99.90;;;;;;5035515;28;20204;-86
2022/03/15 02:47:43;;;;;;;26.03;17.10;;;4.40;99.90;;;;;;5035040;28;20199;-85
2022/03/15 02:50:09;;;;;;;31.50;19.07;;;4.30;99.90;;;;;;5035236;28;20549;-86
2022/03/15 02:52:35;;;;;;;30.13;17.43;;;4.30;99.90;;;;;;5035368;28;20175;-86
2022/03/15 02:55:00;;;;;;;29.00;18.37;;;4.30;99.90;;;;;;5036646;28;20684;-84
2022/03/15 02:57:28;;;;;;;27.03;18.60;;;4.30;99.90;;;;;;5035398;28;20636;-85
2022/03/15 02:59:55;;;;;;;29.47;18.63;;;4.30;99.90;;;;;;5035498;28;20166;-86
2022/03/15 03:02:21;;;;;;;27.87;18.40;;;4.20;99.90;;;;;;5035262;28;20209;-88
2022/03/15 03:04:47;;;;;;;26.20;17.67;;;4.30;99.90;;;;;;5383034;22;20267;-91
2022/03/15 03:07:15;;;;;;;30.03;19.07;;;4.20;99.90;;;;;;5013514;28;20571;-93
2022/03/15 03:09:41;;;;;;;29.90;17.90;;;4.20;99.90;;;;;;5017510;28;20194;-92
2022/03/15 03:12:08;;;;;;;30.13;18.37;;;4.30;99.90;;;;;;5017021;28;20186;-94
2022/03/15 03:14:34;;;;;;;28.10;18.43;;;4.20;99.90;;;;;;5016962;28;20221;-93
2022/03/15 03:17:00;;;;;;;29.73;18.60;;;4.20;99.90;;;;;;5016860;28;20210;-91
2022/03/15 03:19:25;;;;;;;29.67;18.77;;;4.20;99.90;;;;;;5017433;28;20236;-92
2022/03/15 03:21:51;;;;;;;30.17;18.10;;;4.20;99.90;;;;;;5016847;28;20202;-91
2022/03/15 03:24:24;;;;;;;25.73;16.53;;;4.20;99.90;;;;;;5017197;28;20677;-88
2022/03/15 03:26:50;;;;;;;30.53;18.23;;;4.20;99.90;;;;;;5017206;28;20594;-87
2022/03/15 03:29:16;;;;;;;29.53;18.30;;;4.20;99.90;;;;;;5017229;28;20174;-91
2022/03/15 03:31:43;;;;;;;29.47;17.53;;;4.10;99.90;;;;;;5017032;28;20604;-90
2022/03/15 03:34:11;;;;;;;32.43;17.53;;;4.10;99.90;;;;;;5016531;28;20630;-89
2022/03/15 03:36:38;;;;;;;29.00;18.23;;;4.10;99.90;;;;;;5015830;28;20218;-91
2022/03/15 03:39:05;;;;;;;27.63;17.13;;;4.00;99.90;;;;;;5016673;28;20176;-89
2022/03/15 03:41:31;;;;;;;26.27;16.67;;;4.00;99.90;;;;;;5016092;28;20248;-90
2022/03/15 03:43:57;;;;;;;26.13;17.43;;;4.00;99.90;;;;;;5016786;28;20190;-92
2022/03/15 03:46:23;;;;;;;28.60;17.43;;;4.00;99.90;;;;;;5016927;28;20221;-91
2022/03/15 03:48:50;;;;;;;31.60;17.93;;;4.00;99.90;;;;;;5017879;28;20223;-91
2022/03/15 03:51:18;;;;;;;27.00;17.73;;;4.00;99.90;;;;;;5016501;28;20207;-92
2022/03/15 03:53:44;;;;;;;27.90;18.60;;;4.00;99.90;;;;;;5016510;28;20179;-92
2022/03/15 03:56:10;;;;;;;27.27;17.13;;;3.90;99.90;;;;;;5016520;28;20257;-90
2022/03/15 03:58:36;;;;;;;27.10;17.53;;;4.00;99.90;;;;;;5016241;28;20176;-92
2022/03/15 04:01:02;;;;;;;30.47;16.90;;;4.00;99.90;;;;;;5017686;28;20174;-93
2022/03/15 04:03:29;;;;;;;22.87;15.97;;;4.00;99.90;;;;;;5016347;28;20170;-92
2022/03/15 04:05:56;;;;;;;26.70;15.00;;;3.90;99.90;;;;;;5016211;28;20235;-92
2022/03/15 04:08:23;;;;;;;24.13;15.37;;;3.90;99.90;;;;;;5016115;28;20264;-92
2022/03/15 04:10:50;;;;;;;23.10;15.77;;;3.80;99.90;;;;;;5016478;28;20262;-93
2022/03/15 04:13:16;;;;;;;26.73;16.07;;;3.70;99.90;;;;;;5016326;28;20188;-92
2022/03/15 04:15:42;;;;;;;27.27;15.97;;;3.70;99.90;;;;;;5016339;28;20301;-93
2022/03/15 04:18:08;;;;;;;27.67;16.87;;;3.70;99.90;;;;;;5016180;28;20318;-92
2022/03/15 04:20:35;;;;;;;25.70;16.77;;;3.70;99.90;;;;;;5016027;28;20620;-92
2022/03/15 04:23:01;;;;;;;29.10;17.37;;;3.80;99.90;;;;;;5016027;28;20181;-92
2022/03/15 04:25:27;;;;;;;26.57;16.90;;;3.80;99.90;;;;;;5015990;28;20278;-92
2022/03/15 04:27:56;;;;;;;24.50;16.27;;;3.80;99.90;;;;;;5015880;28;20202;-92
2022/03/15 04:30:22;;;;;;;26.20;16.70;;;3.80;99.90;;;;;;5016144;28;20201;-91
2022/03/15 04:32:48;;;;;;;26.77;17.37;;;3.90;99.90;;;;;;5015424;28;20520;-92
2022/03/15 04:35:14;;;;;;;25.20;15.73;;;3.90;99.90;;;;;;5015698;28;20194;-92
2022/03/15 04:37:40;;;;;;;25.40;16.80;;;3.80;99.90;;;;;;5015717;28;20185;-92
2022/03/15 04:40:07;;;;;;;26.60;16.10;;;3.90;99.90;;;;;;5015715;28;20202;-92
2022/03/15 04:42:34;;;;;;;27.80;16.20;;;3.80;99.90;;;;;;5015676;28;20197;-92
2022/03/15 04:45:02;;;;;;;23.87;15.53;;;3.80;99.90;;;;;;5015575;28;20179;-93
2022/03/15 04:47:27;;;;;;;29.60;16.93;;;3.70;99.90;;;;;;5015314;28;20233;-92
2022/03/15 04:49:53;;;;;;;24.33;16.53;;;3.70;99.90;;;;;;5015735;28;20532;-92
2022/03/15 04:52:19;;;;;;;27.47;16.97;;;3.70;99.90;;;;;;5014770;28;20187;-91
2022/03/15 04:54:45;;;;;;;27.43;16.83;;;3.80;99.90;;;;;;5015117;28;20182;-92
2022/03/15 04:57:11;;;;;;;27.90;17.60;;;3.70;99.90;;;;;;5015598;28;20226;-91
2022/03/15 04:59:37;;;;;;;26.70;17.73;;;3.70;99.90;;;;;;5015965;28;20309;-91
2022/03/15 05:02:03;;;;;;;28.07;17.20;;;3.70;99.90;;;;;;5015369;28;20268;-91
2022/03/15 05:04:28;;;;;;;28.40;17.57;;;3.80;99.90;;;;;;5015316;28;20231;-92
2022/03/15 05:06:54;;;;;;;24.80;16.07;;;3.80;99.90;;;;;;5015135;28;20186;-93
2022/03/15 05:09:20;;;;;;;29.60;18.27;;;3.70;99.90;;;;;;5015433;28;20175;-91
2022/03/15 05:11:48;;;;;;;30.60;17.80;;;3.70;99.90;;;;;;5014991;28;20193;-91
2022/03/15 05:14:14;;;;;;;31.80;18.40;;;3.70;99.90;;;;;;5015261;28;20208;-92
2022/03/15 05:16:41;;;;;;;28.43;17.77;;;3.70;99.90;;;;;;5014821;28;20657;-91
2022/03/15 05:19:06;;;;;;;29.87;17.53;;;3.70;99.90;;;;;;5015156;28;20553;-92
2022/03/15 05:21:32;;;;;;;27.93;18.10;;;3.70;99.90;;;;;;5014819;28;20198;-91
2022/03/15 05:23:58;;;;;;;27.87;17.20;;;3.70;99.90;;;;;;5015109;28;20182;-91
2022/03/15 05:26:24;;;;;;;25.57;16.90;;;3.60;99.90;;;;;;5016092;28;20214;-91
2022/03/15 05:28:50;;;;;;;25.27;16.23;;;3.50;99.90;;;;;;5014895;28;20210;-91
2022/03/15 05:31:17;;;;;;;27.63;15.97;;;3.60;99.90;;;;;;5014813;28;20190;-91
2022/03/15 05:33:43;;;;;;;25.20;16.27;;;3.50;99.90;;;;;;5014815;28;20174;-92
2022/03/15 05:36:10;;;;;;;28.13;16.17;;;3.50;99.90;;;;;;5014476;28;20234;-91
2022/03/15 05:38:35;;;;;;;26.17;16.33;;;3.50;99.90;;;;;;5013743;28;20249;-91
2022/03/15 05:41:01;;;;;;;27.30;16.40;;;3.50;99.90;;;;;;5014921;28;20491;-91
2022/03/15 05:43:27;;;;;;;24.40;15.73;;;3.50;99.90;;;;;;5017364;28;20257;-91
2022/03/15 05:45:53;;;;;;;27.93;17.87;;;3.50;99.90;;;;;;5030164;28;20306;-90
2022/03/15 05:48:19;;;;;;;25.03;15.87;;;3.40;99.90;;;;;;5021786;28;20186;-91
2022/03/15 05:50:45;;;;;;;27.60;17.67;;;3.40;99.90;;;;;;5013957;28;20592;-90
2022/03/15 05:53:11;;;;;;;27.63;17.10;;;3.50;99.90;;;;;;5013945;28;20190;-89
2022/03/15 05:55:37;;;;;;;23.60;15.00;;;3.50;99.90;;;;;;5014175;28;20215;-91
2022/03/15 05:58:03;;;;;;;26.67;15.87;;;3.50;99.90;;;;;;5014284;28;20197;-89
2022/03/15 06:00:32;;;;;;;21.50;14.30;;;3.50;99.90;;;;;;5014465;28;20258;-91
2022/03/15 06:02:58;;;;;;;22.80;14.13;;;3.50;99.90;;;;;;5015317;28;20602;-91
2022/03/15 06:05:24;;;;;;;20.97;14.70;;;3.50;99.90;;;;;;5013365;28;20339;-90
2022/03/15 06:07:52;;;;;;;22.47;14.10;;;3.50;99.90;;;;;;5012266;28;20190;-91
2022/03/15 06:10:21;;;;;;;22.43;14.33;;;3.50;99.90;;;;;;5014510;28;20180;-91
2022/03/15 06:12:47;;;;;;;23.17;14.90;;;3.60;99.90;;;;;;5014479;28;20187;-88
2022/03/15 06:15:13;;;;;;;22.37;14.83;;;3.60;99.90;;;;;;5014265;28;20520;-87
2022/03/15 06:17:48;;;;;;;24.40;14.77;;;3.60;99.90;;;;;;5014946;28;20186;-91
2022/03/15 06:20:16;;;;;;;23.43;13.73;;;3.60;99.90;;;;;;5015338;28;20268;-90
2022/03/15 06:22:42;;;;;;;18.00;12.73;;;3.50;99.90;;;;;;5014064;28;20592;-90
2022/03/15 06:25:09;;;;;;;21.53;13.23;;;3.60;99.90;;;;;;5014185;28;20182;-89
2022/03/15 06:27:35;;;;;;;20.67;13.97;;;3.60;99.90;;;;;;5014035;28;20186;-88
2022/03/15 06:30:01;;;;;;;23.13;15.23;;;3.60;99.90;;;;;;5014284;28;20238;-88
2022/03/15 06:32:26;;;;;;;24.67;15.40;;;3.60;99.90;;;;;;5014223;28;20270;-89
2022/03/15 06:34:52;;;;;;;28.47;16.00;;;3.70;99.90;;;;;;5014030;28;20198;-88
2022/03/15 06:37:19;;;;;;;26.23;15.60;;;3.70;99.90;;;;;;5013831;28;20568;-90
2022/03/15 06:39:44;;;;;;;24.03;15.53;;;3.70;99.90;;;;;;5014019;28;20175;-88
2022/03/15 06:42:11;;;;;;;25.87;14.97;;;3.70;99.90;;;;;;5013958;28;20189;-93
2022/03/15 06:44:43;;;;;;;23.90;16.23;;;3.80;99.90;;;;;;5014040;28;20182;-94
2022/03/15 06:47:10;;;;;;;26.57;16.70;;;4.00;99.90;;;;;;5013966;28;20524;-92
2022/03/15 06:49:35;;;;;;;24.63;16.10;;;4.00;99.90;;;;;;5014057;28;20175;-92
2022/03/15 06:52:02;;;;;;;23.93;15.73;;;4.10;99.90;;;;;;5013887;28;20195;-93
2022/03/15 06:54:27;;;;;;;25.20;16.20;;;4.10;99.90;;;;;;5013923;28;20211;-89
2022/03/15 06:56:53;;;;;;;22.83;15.07;;;4.20;99.90;;;;;;5013763;28;20243;-91
2022/03/15 06:59:20;;;;;;;22.43;15.50;;;4.20;99.90;;;;;;5013871;28;20179;-89
2022/03/15 07:01:46;;;;;;;28.13;17.63;;;4.30;99.90;;;;;;5014099;28;20186;-91
2022/03/15 07:04:11;;;;;;;27.47;16.60;;;4.40;99.90;;;;;;5013641;28;20231;-88
2022/03/15 07:06:37;;;;;;;24.37;16.53;;;4.40;99.90;;;;;;5013908;28;20520;-89
2022/03/15 07:09:03;;;;;;;29.13;18.40;;;4.50;99.90;;;;;;5013441;28;20171;-88
2022/03/15 07:11:29;;;;;;;28.97;19.23;;;4.50;99.90;;;;;;5013913;28;20183;-89
2022/03/15 07:13:55;;;;;;;29.87;18.70;;;4.60;99.90;;;;;;5013793;28;20181;-90
2022/03/15 07:16:20;;;;;;;29.63;19.23;;;4.70;99.90;;;;;;5014851;28;20253;-89
2022/03/15 07:18:46;;;;;;;34.60;20.30;;;4.80;99.90;;;;;;5016555;28;20266;-90
2022/03/15 07:21:12;;;;;;;29.83;19.07;;;4.90;99.90;;;;;;5017645;28;20329;-92
2022/03/15 07:23:37;;;;;;;31.50;18.70;;;4.90;99.90;;;;;;5016750;28;20198;-93
2022/03/15 07:26:04;;;;;;;29.70;19.47;;;5.00;99.90;;;;;;5017423;28;20187;-92
2022/03/15 07:28:29;;;;;;;32.67;19.80;;;5.10;99.90;;;;;;5017363;28;20610;-94
2022/03/15 07:30:55;;;;;;;27.50;17.27;;;5.20;99.90;;;;;;5017154;28;20233;-93
2022/03/15 07:33:21;;;;;;;30.67;20.07;;;5.20;99.90;;;;;;5017281;28;20187;-93
2022/03/15 07:35:46;;;;;;;37.37;21.93;;;5.40;99.90;;;;;;5017013;28;20221;-93
2022/03/15 07:38:17;;;;;;;31.33;19.60;;;5.50;99.90;;;;;;5016652;28;20182;-92
2022/03/15 07:40:43;;;;;;;30.17;18.53;;;5.60;99.90;;;;;;5018196;28;20595;-95
2022/03/15 07:43:10;;;;;;;30.40;18.63;;;5.70;99.90;;;;;;5017123;28;20191;-93
2022/03/15 07:45:36;;;;;;;27.87;17.83;;;5.70;99.90;;;;;;5016978;28;20186;-94
2022/03/15 07:48:02;;;;;;;38.30;20.03;;;5.80;99.90;;;;;;5017363;28;20189;-93
2022/03/15 07:50:27;;;;;;;35.57;20.80;;;5.90;99.90;;;;;;5016934;28;20183;-94
2022/03/15 07:52:53;;;;;;;30.27;19.70;;;6.00;99.90;;;;;;5015891;28;20187;-94
2022/03/15 07:55:21;;;;;;;32.43;19.60;;;6.10;99.90;;;;;;5016664;28;20183;-93
2022/03/15 07:57:47;;;;;;;33.20;19.30;;;6.10;99.90;;;;;;5016638;28;20190;-90
2022/03/15 08:00:14;;;;;;;32.20;20.27;;;6.20;99.90;;;;;;5016703;28;20171;-89
2022/03/15 08:02:40;;;;;;;30.00;20.67;;;6.30;99.90;;;;;;5016561;28;20325;-91
2022/03/15 08:05:07;;;;;;;31.27;19.87;;;6.40;99.90;;;;;;5017322;28;20230;-93
2022/03/15 08:07:36;;;;;;;32.70;19.93;;;6.50;99.90;;;;;;5016016;28;20186;-94
2022/03/15 08:10:04;;;;;;;35.17;20.03;;;6.50;99.90;;;;;;5016566;28;20266;-94
2022/03/15 08:12:30;;;;;;;34.27;20.93;;;6.60;99.90;;;;;;5016375;28;20217;-92
2022/03/15 08:14:55;;;;;;;33.13;19.97;;;6.70;99.90;;;;;;5016418;28;20179;-95
2022/03/15 08:17:21;;;;;;;41.07;23.17;;;6.80;99.90;;;;;;5016319;28;20219;-93
2022/03/15 08:19:47;;;;;;;33.83;21.30;;;6.90;99.90;;;;;;5016231;28;20179;-94
2022/03/15 08:22:13;;;;;;;38.93;22.60;;;7.00;99.90;;;;;;5015912;28;20191;-94
2022/03/15 08:24:38;;;;;;;35.23;21.70;;;7.10;99.90;;;;;;5015326;28;20633;-94
2022/03/15 08:27:04;;;;;;;32.73;20.13;;;7.20;99.90;;;;;;5012718;28;20188;-94
2022/03/15 08:29:30;;;;;;;36.40;21.77;;;7.20;99.90;;;;;;5006138;28;20195;-95
2022/03/15 08:31:56;;;;;;;36.23;22.43;;;7.30;99.90;;;;;;5016395;28;20278;-94
2022/03/15 08:34:22;;;;;;;33.60;21.00;;;7.40;99.90;;;;;;5015748;28;20195;-94
2022/03/15 08:36:48;;;;;;;37.73;23.30;;;7.50;99.90;;;;;;5015968;28;20226;-96
2022/03/15 08:39:15;;;;;;;33.87;21.47;;;7.60;99.90;;;;;;5015863;28;20212;-93
2022/03/15 08:41:42;;;;;;;33.53;21.37;;;7.60;99.90;;;;;;5015967;28;20184;-91
2022/03/15 08:44:08;;;;;;;31.20;20.57;;;7.70;99.90;;;;;;5015887;28;20228;-92
2022/03/15 08:46:34;;;;;;;34.33;20.33;;;7.80;99.90;;;;;;5017257;28;20179;-94
2022/03/15 08:49:00;;;;;;;31.20;20.63;;;7.90;99.90;;;;;;5015536;28;20265;-95
2022/03/15 08:51:25;;;;;;;32.77;20.60;;;7.90;99.90;;;;;;5016350;28;20195;-94
2022/03/15 08:53:51;;;;;;;30.40;19.23;;;8.00;99.90;;;;;;5015413;28;20187;-94
2022/03/15 08:56:17;;;;;;;33.83;21.10;;;8.00;99.90;;;;;;5015806;28;20674;-93
2022/03/15 08:58:43;;;;;;;31.63;21.20;;;8.10;99.90;;;;;;5015709;28;20221;-93
2022/03/15 09:01:08;;;;;;;32.17;20.57;;;8.20;99.90;;;;;;5015550;28;20175;-95
2022/03/15 09:03:34;;;;;;;32.23;19.70;;;8.30;99.90;;;;;;5016078;28;20182;-93
2022/03/15 09:05:59;;;;;;;32.90;20.20;;;8.40;99.90;;;;;;5015783;28;20179;-95
2022/03/15 09:08:25;;;;;;;33.03;20.13;;;8.50;99.90;;;;;;5014990;28;20179;-95
2022/03/15 09:10:51;;;;;;;30.93;19.00;;;8.60;99.90;;;;;;5015320;28;20183;-94
2022/03/15 09:13:16;;;;;;;32.07;20.07;;;8.60;99.90;;;;;;5015228;28;20187;-95
2022/03/15 09:15:43;;;;;;;27.40;18.63;;;8.70;99.90;;;;;;5015046;28;20210;-94
2022/03/15 09:18:08;;;;;;;30.10;19.00;;;8.80;99.90;;;;;;5015181;28;20245;-94
2022/03/15 09:20:34;;;;;;;34.23;20.47;;;8.80;99.90;;;;;;5014995;28;20172;-94
2022/03/15 09:23:00;;;;;;;30.30;18.73;;;8.90;99.90;;;;;;5016153;28;20262;-93
2022/03/15 09:25:26;;;;;;;33.90;18.80;;;9.00;99.90;;;;;;5015097;28;20183;-94
2022/03/15 09:27:52;;;;;;;29.13;18.90;;;9.10;99.90;;;;;;5015279;28;20222;-93
2022/03/15 09:30:18;;;;;;;28.60;18.13;;;9.10;99.90;;;;;;5015025;28;20190;-95
2022/03/15 09:32:44;;;;;;;25.50;17.43;;;9.20;99.90;;;;;;5014829;28;20178;-94
2022/03/15 09:35:10;;;;;;;29.33;18.13;;;9.20;99.90;;;;;;5015931;28;20183;-95
2022/03/15 09:37:36;;;;;;;32.37;19.70;;;9.20;99.90;;;;;;5014499;28;20650;-95
2022/03/15 09:40:08;;;;;;;33.23;19.13;;;9.30;99.90;;;;;;5014458;28;20212;-91
2022/03/15 09:42:35;;;;;;;28.00;18.30;;;9.30;99.90;;;;;;5014797;28;20175;-92
2022/03/15 09:45:03;;;;;;;26.53;17.40;;;9.40;99.90;;;;;;5014508;28;20187;-94
2022/03/15 09:47:32;;;;;;;26.83;16.57;;;9.50;99.90;;;;;;5014519;28;20179;-93
2022/03/15 09:50:03;;;;;;;28.00;16.87;;;9.50;99.90;;;;;;5014627;28;20477;-93
2022/03/15 09:52:29;;;;;;;26.73;16.10;;;9.60;99.90;;;;;;5013684;28;20182;-91
2022/03/15 09:54:56;;;;;;;27.00;16.97;;;9.70;99.90;;;;;;5014543;28;20178;-89
2022/03/15 09:57:22;;;;;;;29.67;17.67;;;9.80;99.90;;;;;;5014400;28;20219;-95
2022/03/15 09:59:52;;;;;;;26.97;17.73;;;9.80;99.90;;;;;;5014367;28;20178;-90
2022/03/15 10:02:18;;;;;;;27.77;16.63;;;9.90;99.90;;;;;;5014411;28;20186;-93
2022/03/15 10:04:44;;;;;;;26.57;16.70;;;10.00;99.90;;;;;;5014158;28;20227;-92
2022/03/15 10:07:11;;;;;;;25.87;16.63;;;10.00;99.90;;;;;;5014174;28;20171;-95
2022/03/15 10:09:37;;;;;;;26.93;17.20;;;10.10;99.90;;;;;;5014396;28;20520;-96
2022/03/15 10:12:04;;;;;;;23.50;15.93;;;10.20;99.90;;;;;;5014487;28;20562;-94
2022/03/15 10:14:41;;;;;;;24.93;15.93;;;10.20;99.90;;;;;;5014354;28;20175;-95
2022/03/15 10:17:06;;;;;;;25.40;16.90;;;10.20;99.90;;;;;;5014473;28;20207;-94
2022/03/15 10:19:32;;;;;;;33.57;17.67;;;10.30;99.90;;;;;;5014355;28;20175;-94
2022/03/15 10:21:58;;;;;;;27.83;17.83;;;10.30;99.90;;;;;;5014186;28;20641;-96
2022/03/15 10:24:29;;;;;;;26.47;17.43;;;10.40;99.90;;;;;;5014179;28;20184;-96
2022/03/15 10:26:59;;;;;;;29.13;17.20;;;10.50;99.90;;;;;;5013970;28;20234;-96
2022/03/15 10:29:27;;;;;;;27.00;17.03;;;10.50;99.90;;;;;;5014248;28;20184;-94
2022/03/15 10:31:53;;;;;;;30.53;17.80;;;10.60;99.90;;;;;;5014146;28;20182;-94
2022/03/15 10:34:21;;;;;;;28.10;18.65;;;10.70;99.90;;;;;;5014088;28;20179;-94
2022/03/15 10:36:51;;;;;;;28.40;19.13;;;10.80;99.90;;;;;;5014132;28;20257;-93
2022/03/15 10:39:19;;;;;;;30.97;19.47;;;10.90;99.90;;;;;;5014150;28;20201;-95
2022/03/15 10:41:54;;;;;;;29.37;18.17;;;11.00;99.90;;;;;;5014209;28;20179;-88
2022/03/15 10:44:33;;;;;;;29.80;19.45;;;11.10;99.90;;;;;;5014055;28;20207;-90
2022/03/15 10:47:14;;;;;;;31.35;19.48;;;11.20;99.90;;;;;;5014130;28;20179;-89
2022/03/15 10:49:57;;;;;;;34.27;20.23;;;11.20;99.90;;;;;;5014542;28;20664;-94
2022/03/15 10:52:40;;;;;;;34.17;20.03;;;11.30;99.90;;;;;;5014619;28;20190;-92
2022/03/15 10:55:28;;;;;;;28.30;20.30;;;11.30;99.90;;;;;;5017784;28;20167;-95
2022/03/15 10:58:09;;;;;;;33.80;20.17;;;11.40;99.90;;;;;;5017969;28;20211;-89
2022/03/15 11:00:37;;;;;;;31.25;21.60;;;11.40;99.90;;;;;;5017979;28;20602;-95
2022/03/15 11:03:15;;;;;;;34.58;20.42;;;11.50;99.90;;;;;;5019284;28;20175;-92
2022/03/15 11:05:42;;;;;;;32.95;21.65;;;11.60;99.90;;;;;;5018199;28;20226;-93
2022/03/15 11:08:10;;;;;;;34.75;22.05;;;11.60;99.90;;;;;;5017490;28;20186;-94
2022/03/15 11:10:38;;;;;;;35.95;22.38;;;11.70;99.90;;;;;;5018247;28;20644;-94
2022/03/15 11:13:11;;;;;;;33.03;21.75;;;11.80;99.90;;;;;;5017868;28;20194;-92
2022/03/15 11:15:48;;;;;;;33.78;22.55;;;11.80;99.90;;;;;;5017510;28;20178;-92
2022/03/15 11:18:17;;;;;;;34.08;22.15;;;11.90;99.90;;;;;;5017407;28;20183;-92
2022/03/15 11:20:46;;;;;;;39.65;23.52;;;11.90;99.90;;;;;;5017381;28;20179;-94
2022/03/15 11:23:14;;;;;;;31.92;22.50;;;11.90;99.90;;;;;;5017334;28;20211;-90
2022/03/15 11:25:54;;;;;;;33.85;22.63;;;11.90;99.90;;;;;;5017195;28;20198;-91
2022/03/15 11:28:23;;;;;;;33.67;22.65;;;12.00;99.90;;;;;;5017118;28;20175;-93
2022/03/15 11:30:51;;;;;;;34.33;22.75;;;12.00;99.90;;;;;;5017149;28;20230;-95
2022/03/15 11:33:17;;;;;;;37.35;22.73;;;12.00;99.90;;;;;;5018271;28;20163;-89
2022/03/15 11:35:43;;;;;;;32.03;21.33;;;12.00;99.90;;;;;;5016956;28;20180;-94
2022/03/15 11:38:12;;;;;;;35.65;21.75;;;12.10;99.90;;;;;;5016804;28;20180;-95
2022/03/15 11:40:39;;;;;;;33.95;22.58;;;12.10;99.90;;;;;;5016929;28;20606;-91
2022/03/15 11:43:33;;;;;;;28.30;20.00;;;12.20;99.90;;;;;;5018211;28;20182;-93
2022/03/15 11:46:12;;;;;;;31.05;20.08;;;12.20;99.90;;;;;;5018060;28;20516;-90
2022/03/15 11:49:17;;;;;;;29.08;19.27;;;12.20;99.90;;;;;;5018591;28;20175;-95
2022/03/15 11:51:46;;;;;;;27.52;19.25;;;12.10;99.90;;;;;;5018037;28;20171;-94
2022/03/15 11:54:30;;;;;;;25.80;18.75;;;12.20;99.90;;;;;;5016886;28;20171;-95
2022/03/15 11:57:21;;;;;;;33.03;19.98;;;12.20;99.90;;;;;;5016912;28;20215;-94
2022/03/15 11:59:52;;;;;;;28.00;17.95;;;12.20;99.90;;;;;;5009693;28;20180;-96
2022/03/15 12:02:28;;;;;;;29.52;19.00;;;12.20;99.90;;;;;;4997333;28;20190;-95
2022/03/15 12:04:55;;;;;;;26.65;18.38;;;12.20;99.90;;;;;;4996469;28;20238;-94
2022/03/15 12:10:36;;;;;;;27.55;17.63;;;12.20;99.90;;;;;;4993794;28;20183;-96
2022/03/15 12:13:04;;;;;;;31.50;17.92;;;12.20;99.90;;;;;;4997210;28;20270;-92
2022/03/15 12:15:38;;;;;;;30.92;16.98;;;12.20;99.90;;;;;;4996574;28;20266;-89
2022/03/15 12:21:20;;;;;;;27.38;17.60;;;12.10;99.90;;;;;;4998341;28;20159;-93
2022/03/15 12:23:50;;;;;;;24.15;17.33;;;12.10;99.90;;;;;;4994600;28;20638;-87
2022/03/15 12:26:30;;;;;;;24.85;16.73;;;12.10;99.90;;;;;;4996763;28;20176;-86
2022/03/15 12:29:13;;;;;;;26.38;16.17;;;12.10;99.90;;;;;;4996705;28;20226;-91
2022/03/15 12:31:46;;;;;;;23.65;16.48;;;12.10;99.90;;;;;;4996568;28;20175;-91
2022/03/15 12:34:17;;;;;;;22.38;15.65;;;12.10;99.90;;;;;;4996422;28;20181;-88
2022/03/15 12:37:01;;;;;;;26.50;15.02;;;12.10;99.90;;;;;;4996240;28;20205;-88
2022/03/15 12:39:29;;;;;;;24.92;17.08;;;12.10;99.90;;;;;;4996448;28;20172;-88
2022/03/15 12:42:15;;;;;;;26.60;16.10;;;12.10;99.90;;;;;;4996490;28;20188;-90
2022/03/15 12:44:44;;;;;;;28.90;15.50;;;12.20;99.90;;;;;;4996387;28;20642;-88